Time;durP1;ratioP1;P1;durP2;ratioP2;P2;SDS_P1;SDS_P2;PMS_P1;PMS_P2;Temp;Humidity;BMP_temperature;BMP_pressure;BME280_temperature;BME280_humidity;BME280_pressure;Samples;Min_cycle;Max_cycle;Signal;HPM_P1;HPM_P2
2021/11/14 05:00:15;;;;;;;53.22;25.73;;;8.00;99.90;;;;;;6093733;23;20196;31
2021/11/14 05:02:42;;;;;;;53.10;27.60;;;8.00;99.90;;;;;;4951061;28;20221;-72
2021/11/14 05:05:09;;;;;;;55.78;27.27;;;8.00;99.90;;;;;;4953586;28;20283;-72
2021/11/14 05:07:36;;;;;;;50.22;27.60;;;8.00;99.90;;;;;;4952772;28;20658;-72
2021/11/14 05:10:04;;;;;;;53.30;28.50;;;8.00;99.90;;;;;;4953537;28;20220;-72
2021/11/14 05:12:30;;;;;;;60.40;28.73;;;8.00;99.90;;;;;;4952739;28;20366;-71
2021/11/14 05:14:57;;;;;;;49.65;25.67;;;8.00;99.90;;;;;;4953368;28;20275;-71
2021/11/14 05:17:25;;;;;;;57.97;29.17;;;8.00;99.90;;;;;;4947203;28;20216;-69
2021/11/14 05:19:53;;;;;;;58.13;28.25;;;8.00;99.90;;;;;;4952642;28;20678;-70
2021/11/14 05:22:20;;;;;;;63.00;27.90;;;8.00;99.90;;;;;;4953543;28;20237;-71
2021/11/14 05:24:46;;;;;;;58.97;29.27;;;8.00;99.90;;;;;;4953203;28;20568;-72
2021/11/14 05:27:13;;;;;;;56.70;26.90;;;8.00;99.90;;;;;;4952946;28;20268;-71
2021/11/14 05:29:40;;;;;;;59.78;28.67;;;8.00;99.90;;;;;;4952973;28;20275;-71
2021/11/14 05:32:07;;;;;;;57.38;29.50;;;8.10;99.90;;;;;;4952296;28;20233;-72
2021/11/14 05:34:35;;;;;;;63.22;30.40;;;8.00;99.90;;;;;;4952778;28;20237;-72
2021/11/14 05:37:02;;;;;;;70.15;29.77;;;8.10;99.90;;;;;;4952791;28;20666;-72
2021/11/14 05:39:29;;;;;;;59.92;29.25;;;8.10;99.90;;;;;;4952865;28;20205;-72
2021/11/14 05:41:55;;;;;;;54.85;25.42;;;8.00;99.90;;;;;;4952421;28;20621;-72
2021/11/14 05:44:22;;;;;;;60.70;30.77;;;8.00;99.90;;;;;;4953300;28;20621;-72
2021/11/14 05:46:49;;;;;;;58.35;24.92;;;8.00;99.90;;;;;;4952981;28;20213;-74
2021/11/14 05:49:16;;;;;;;54.97;27.08;;;8.00;99.90;;;;;;4952180;28;20725;-71
2021/11/14 05:51:44;;;;;;;64.50;27.52;;;8.00;99.90;;;;;;4952641;28;20221;-71
2021/11/14 05:54:11;;;;;;;58.53;26.77;;;8.00;99.90;;;;;;4952880;28;20332;-71
2021/11/14 05:56:38;;;;;;;71.75;27.80;;;8.00;99.90;;;;;;4952163;28;20232;-71
2021/11/14 05:59:12;;;;;;;67.00;29.33;;;8.00;99.90;;;;;;4952208;28;20271;-71
2021/11/14 06:01:42;;;;;;;63.10;27.02;;;8.00;99.90;;;;;;4963656;28;20236;-71
2021/11/14 06:04:16;;;;;;;61.10;26.77;;;8.00;99.90;;;;;;4971525;28;20652;-71
2021/11/14 06:06:44;;;;;;;52.33;26.67;;;8.10;99.90;;;;;;4968821;28;20204;-71
2021/11/14 06:09:11;;;;;;;60.83;28.52;;;8.10;99.90;;;;;;4971418;28;20286;-71
2021/11/14 06:11:38;;;;;;;53.10;26.38;;;8.00;99.90;;;;;;4971472;28;20267;-70
2021/11/14 06:14:05;;;;;;;58.25;29.65;;;8.00;99.90;;;;;;4971797;28;20282;-72
2021/11/14 06:16:32;;;;;;;58.60;27.33;;;8.00;99.90;;;;;;4972053;28;20273;-71
2021/11/14 06:19:00;;;;;;;53.33;26.50;;;8.00;99.90;;;;;;4971265;28;20565;-71
2021/11/14 06:21:27;;;;;;;59.08;26.42;;;8.00;99.90;;;;;;4971670;28;20657;-71
2021/11/14 06:23:55;;;;;;;56.08;26.50;;;8.00;99.90;;;;;;4971862;28;20610;-72
2021/11/14 06:26:24;;;;;;;56.70;28.58;;;8.00;99.90;;;;;;4971363;28;20216;-70
2021/11/14 06:28:51;;;;;;;61.08;27.08;;;8.00;99.90;;;;;;4971212;28;20280;-70
2021/11/14 06:31:19;;;;;;;56.45;26.85;;;8.10;99.90;;;;;;4971335;28;20287;-71
2021/11/14 06:33:46;;;;;;;59.95;27.38;;;8.10;99.90;;;;;;4971304;28;20240;-71
2021/11/14 06:36:12;;;;;;;62.88;27.23;;;8.10;99.90;;;;;;4971537;28;20615;-71
2021/11/14 06:38:39;;;;;;;61.53;27.98;;;8.10;99.90;;;;;;4971349;28;20629;-71
2021/11/14 06:41:07;;;;;;;62.88;28.27;;;8.10;99.90;;;;;;4971103;28;20229;-71
2021/11/14 06:43:34;;;;;;;59.75;28.50;;;8.10;99.90;;;;;;4971467;28;20650;-71
2021/11/14 06:46:03;;;;;;;59.03;26.85;;;8.00;99.90;;;;;;4971581;28;20601;-71
2021/11/14 06:48:30;;;;;;;52.25;27.02;;;8.10;99.90;;;;;;4971302;28;20208;-71
2021/11/14 06:50:57;;;;;;;55.65;26.98;;;8.10;99.90;;;;;;4971300;28;20233;-70
2021/11/14 06:53:24;;;;;;;58.42;27.98;;;8.10;99.90;;;;;;4971257;28;20247;-71
2021/11/14 06:55:51;;;;;;;63.17;26.08;;;8.00;99.90;;;;;;4970320;28;20287;-71
2021/11/14 06:58:19;;;;;;;55.95;28.83;;;8.10;99.90;;;;;;4971136;28;20521;-70
2021/11/14 07:00:45;;;;;;;66.50;27.13;;;8.10;99.90;;;;;;4971283;28;20241;-71
2021/11/14 07:03:14;;;;;;;57.53;27.25;;;8.10;99.90;;;;;;4971043;28;20650;-71
2021/11/14 07:05:41;;;;;;;62.80;30.35;;;8.10;99.90;;;;;;4971052;28;20589;-69
2021/11/14 07:08:08;;;;;;;64.20;28.63;;;8.10;99.90;;;;;;4970938;28;20205;-69
2021/11/14 07:10:35;;;;;;;53.78;27.40;;;8.10;99.90;;;;;;4971007;28;20331;-70
2021/11/14 07:13:02;;;;;;;55.22;27.65;;;8.10;99.90;;;;;;4973410;28;20583;-71
2021/11/14 07:15:30;;;;;;;59.72;29.45;;;8.10;99.90;;;;;;4975032;28;20212;-70
2021/11/14 07:17:56;;;;;;;71.05;28.40;;;8.10;99.90;;;;;;4973980;28;20209;-69
2021/11/14 07:20:23;;;;;;;56.30;26.55;;;8.10;99.90;;;;;;4974510;28;20274;-69
2021/11/14 07:22:50;;;;;;;56.55;26.20;;;8.10;99.90;;;;;;4974238;28;20209;-71
2021/11/14 07:25:19;;;;;;;69.25;28.45;;;8.10;99.90;;;;;;4974335;28;20201;-70
2021/11/14 07:27:49;;;;;;;56.88;29.45;;;8.10;99.90;;;;;;4973558;28;20253;-70
2021/11/14 07:30:16;;;;;;;56.58;27.92;;;8.10;99.90;;;;;;4974490;28;20205;-70
2021/11/14 07:32:44;;;;;;;49.15;25.55;;;8.20;99.90;;;;;;4973785;28;20791;-69
2021/11/14 07:35:14;;;;;;;61.92;27.38;;;8.20;99.90;;;;;;4974150;28;20224;-70
2021/11/14 07:37:40;;;;;;;51.47;28.33;;;8.20;99.90;;;;;;4973843;28;20300;-70
2021/11/14 07:40:09;;;;;;;51.90;27.48;;;8.20;99.90;;;;;;4974878;28;20215;-70
2021/11/14 07:42:37;;;;;;;53.40;27.88;;;8.20;99.90;;;;;;4973937;28;20228;-70
2021/11/14 07:45:05;;;;;;;56.90;27.63;;;8.20;99.90;;;;;;4968980;28;20233;-70
2021/11/14 07:47:31;;;;;;;59.45;28.05;;;8.20;99.90;;;;;;4973710;28;20209;-69
2021/11/14 07:50:00;;;;;;;59.80;27.25;;;8.20;99.90;;;;;;4978795;28;20321;-71
2021/11/14 07:52:29;;;;;;;53.28;27.30;;;8.20;99.90;;;;;;4974246;28;20287;-70
2021/11/14 07:54:55;;;;;;;44.03;24.35;;;8.20;99.90;;;;;;4973770;28;20228;-69
2021/11/14 07:57:22;;;;;;;50.20;26.60;;;8.20;99.90;;;;;;4973402;28;20275;-69
2021/11/14 07:59:49;;;;;;;52.85;25.77;;;8.20;99.90;;;;;;4973357;28;20209;-70
2021/11/14 08:02:15;;;;;;;52.72;25.65;;;8.20;99.90;;;;;;4973159;28;20736;-69
2021/11/14 08:04:42;;;;;;;55.35;27.52;;;8.20;99.90;;;;;;4973796;28;20661;-68
2021/11/14 08:07:10;;;;;;;50.22;25.55;;;8.20;99.90;;;;;;4973804;28;20216;-70
2021/11/14 08:09:37;;;;;;;50.35;26.08;;;8.20;99.90;;;;;;4973588;28;20231;-71
2021/11/14 08:12:05;;;;;;;55.33;27.27;;;8.20;99.90;;;;;;4973195;28;20255;-70
2021/11/14 08:14:31;;;;;;;45.75;25.08;;;8.20;99.90;;;;;;4973694;28;20681;-70
2021/11/14 08:16:58;;;;;;;55.60;27.05;;;8.30;99.90;;;;;;4969771;28;20209;-69
2021/11/14 08:19:25;;;;;;;52.55;25.52;;;8.30;99.90;;;;;;4971461;28;20535;-69
2021/11/14 08:21:52;;;;;;;53.50;26.70;;;8.30;99.90;;;;;;4973531;28;20328;-70
2021/11/14 08:24:19;;;;;;;47.75;25.40;;;8.30;99.90;;;;;;4975164;28;20259;-70
2021/11/14 08:26:46;;;;;;;44.92;25.10;;;8.30;99.90;;;;;;4976782;28;20224;-70
2021/11/14 08:29:13;;;;;;;48.42;24.02;;;8.30;99.90;;;;;;4976914;28;20209;-70
2021/11/14 08:31:39;;;;;;;52.65;25.13;;;8.30;99.90;;;;;;4977005;28;20236;-71
2021/11/14 08:34:06;;;;;;;47.17;26.02;;;8.30;99.90;;;;;;4977777;28;20233;-69
2021/11/14 08:36:33;;;;;;;45.38;25.40;;;8.30;99.90;;;;;;4977504;28;20223;-70
2021/11/14 08:39:00;;;;;;;52.92;25.92;;;8.30;99.90;;;;;;4976036;28;20217;-71
2021/11/14 08:41:28;;;;;;;47.65;24.73;;;8.40;99.90;;;;;;4972753;28;20748;-69
2021/11/14 08:43:54;;;;;;;46.13;24.20;;;8.30;99.90;;;;;;4973824;28;20256;-70
2021/11/14 08:46:21;;;;;;;41.42;22.95;;;8.40;99.90;;;;;;4973114;28;20209;-69
2021/11/14 08:48:48;;;;;;;48.92;23.65;;;8.40;99.90;;;;;;4974692;28;20219;-70
2021/11/14 08:51:14;;;;;;;48.13;25.48;;;8.40;99.90;;;;;;4973386;28;20294;-70
2021/11/14 08:53:41;;;;;;;45.80;24.08;;;8.40;99.90;;;;;;4973840;28;20240;-69
2021/11/14 08:56:08;;;;;;;53.88;24.20;;;8.40;99.90;;;;;;4975783;28;20657;-71
2021/11/14 08:58:37;;;;;;;54.08;25.38;;;8.40;99.90;;;;;;4977246;28;20251;-70
2021/11/14 09:01:07;;;;;;;51.15;23.45;;;8.40;99.90;;;;;;4977475;28;20244;-69
2021/11/14 09:03:34;;;;;;;49.78;23.27;;;8.40;99.90;;;;;;4972189;28;20345;-70
2021/11/14 09:06:01;;;;;;;45.83;22.25;;;8.40;99.90;;;;;;4972903;28;20209;-70
2021/11/14 09:08:28;;;;;;;60.83;26.05;;;8.40;99.90;;;;;;4972515;28;20208;-70
2021/11/14 09:10:55;;;;;;;46.42;23.77;;;8.40;99.90;;;;;;4972164;28;20244;-70
2021/11/14 09:13:22;;;;;;;63.63;27.38;;;8.30;99.90;;;;;;4972549;28;20212;-71
2021/11/14 09:15:51;;;;;;;49.83;23.23;;;8.40;99.90;;;;;;4972590;28;20232;-71
2021/11/14 09:18:18;;;;;;;53.13;24.00;;;8.40;99.90;;;;;;4971788;28;20232;-69
2021/11/14 09:20:46;;;;;;;54.13;24.00;;;8.40;99.90;;;;;;4972421;28;20231;-70
2021/11/14 09:23:13;;;;;;;44.10;23.98;;;8.40;99.90;;;;;;4972233;28;20212;-71
2021/11/14 09:25:40;;;;;;;49.13;23.02;;;8.40;99.90;;;;;;4972290;28;20310;-71
2021/11/14 09:28:07;;;;;;;51.17;23.85;;;8.40;99.90;;;;;;4971729;28;20286;-72
2021/11/14 09:30:34;;;;;;;53.72;24.75;;;8.40;99.90;;;;;;4972520;28;20236;-69
2021/11/14 09:33:02;;;;;;;46.47;22.13;;;8.40;99.90;;;;;;4971906;28;20208;-70
2021/11/14 09:35:29;;;;;;;48.35;22.08;;;8.40;99.90;;;;;;4971919;28;20236;-70
2021/11/14 09:37:56;;;;;;;38.45;21.05;;;8.40;99.90;;;;;;4971885;28;20215;-68
2021/11/14 09:40:22;;;;;;;41.05;21.27;;;8.40;99.90;;;;;;4977466;28;20634;-70
2021/11/14 09:42:49;;;;;;;39.15;20.00;;;8.40;99.90;;;;;;4974838;28;20219;-70
2021/11/14 09:45:16;;;;;;;46.05;23.02;;;8.50;99.90;;;;;;4966121;28;20212;-71
2021/11/14 09:47:43;;;;;;;44.85;22.15;;;8.40;99.90;;;;;;4971780;28;20221;-70
2021/11/14 09:50:12;;;;;;;46.90;21.05;;;8.50;99.90;;;;;;4972152;28;20260;-70
2021/11/14 09:52:39;;;;;;;43.15;21.13;;;8.50;99.90;;;;;;4972095;28;20266;-70
2021/11/14 09:55:09;;;;;;;43.25;21.58;;;8.50;99.90;;;;;;4971815;28;20263;-70
2021/11/14 09:57:36;;;;;;;47.03;24.05;;;8.60;99.90;;;;;;4971347;28;20728;-70
2021/11/14 10:00:05;;;;;;;38.60;20.42;;;8.60;99.90;;;;;;4971733;28;20703;-70
2021/11/14 10:02:32;;;;;;;42.72;20.20;;;8.60;99.90;;;;;;4971423;28;20239;-70
2021/11/14 10:04:58;;;;;;;41.65;20.30;;;8.60;99.90;;;;;;4972111;28;20308;-70
2021/11/14 10:07:27;;;;;;;37.33;21.33;;;8.60;99.90;;;;;;4971819;28;20215;-69
2021/11/14 10:09:55;;;;;;;42.78;21.83;;;8.60;99.90;;;;;;4971741;28;20709;-70
2021/11/14 10:12:24;;;;;;;38.75;20.63;;;8.60;99.90;;;;;;4971528;28;20265;-69
2021/11/14 10:15:04;;;;;;;36.65;18.80;;;8.60;99.90;;;;;;4972149;28;20232;-70
2021/11/14 10:17:31;;;;;;;36.08;18.80;;;8.60;99.90;;;;;;4966107;28;20220;-71
2021/11/14 10:20:01;;;;;;;40.22;19.85;;;8.60;99.90;;;;;;4971369;28;20271;-69
2021/11/14 10:22:29;;;;;;;39.50;20.20;;;8.60;99.90;;;;;;4971869;28;20255;-69
2021/11/14 10:24:56;;;;;;;40.42;18.10;;;8.50;99.90;;;;;;4971536;28;20209;-71
2021/11/14 10:27:26;;;;;;;37.00;18.35;;;8.50;99.90;;;;;;4971047;28;20212;-70
2021/11/14 10:29:53;;;;;;;38.97;18.55;;;8.50;99.90;;;;;;4971347;28;20638;-70
2021/11/14 10:32:20;;;;;;;39.78;18.85;;;8.50;99.90;;;;;;4970999;28;20563;-70
2021/11/14 10:34:48;;;;;;;39.65;17.08;;;8.50;99.90;;;;;;4971552;28;20619;-70
2021/11/14 10:37:16;;;;;;;36.65;19.73;;;8.50;99.90;;;;;;4971332;28;20703;-70
2021/11/14 10:39:44;;;;;;;41.40;21.35;;;8.40;99.90;;;;;;4971478;28;20215;-69
2021/11/14 10:42:13;;;;;;;46.47;21.90;;;8.50;99.90;;;;;;4971253;28;20244;-69
2021/11/14 10:44:46;;;;;;;46.83;23.42;;;8.40;99.90;;;;;;4971811;28;20291;-69
2021/11/14 10:47:14;;;;;;;68.20;27.45;;;8.40;99.90;;;;;;4972545;28;20535;-69
2021/11/14 10:49:52;;;;;;;68.63;27.55;;;8.40;99.90;;;;;;4974791;28;20219;-69
2021/11/14 10:52:19;;;;;;;67.60;29.60;;;8.40;99.90;;;;;;4974961;28;20354;-71
2021/11/14 10:54:53;;;;;;;79.88;32.63;;;8.40;99.90;;;;;;4975190;28;20232;-69
2021/11/14 10:57:20;;;;;;;86.05;32.88;;;8.40;99.90;;;;;;4974423;28;20212;-69
2021/11/14 10:59:50;;;;;;;77.30;31.83;;;8.40;99.90;;;;;;4974558;28;20213;-69
2021/11/14 11:02:18;;;;;;;87.85;35.97;;;8.40;99.90;;;;;;4974372;28;20705;-70
2021/11/14 11:04:45;;;;;;;77.03;34.72;;;8.30;99.90;;;;;;4974736;28;20739;-70
2021/11/14 11:07:12;;;;;;;80.28;34.85;;;8.40;99.90;;;;;;4971463;28;20204;-69
2021/11/14 11:09:42;;;;;;;75.20;33.53;;;8.30;99.90;;;;;;4974977;28;20212;-69
2021/11/14 11:12:21;;;;;;;80.43;34.00;;;8.40;99.90;;;;;;4974271;28;20511;-69
2021/11/14 11:15:07;;;;;;;88.88;36.70;;;8.40;99.90;;;;;;4974549;28;20243;-69
2021/11/14 11:17:47;;;;;;;89.80;34.00;;;8.40;99.90;;;;;;4974262;28;20659;-69
2021/11/14 11:20:17;;;;;;;74.80;35.92;;;8.40;99.90;;;;;;4974799;28;20216;-69
2021/11/14 11:22:53;;;;;;;76.90;32.20;;;8.50;99.90;;;;;;4974440;28;20216;-69
2021/11/14 11:25:39;;;;;;;73.65;32.15;;;8.50;99.90;;;;;;4974674;28;20209;-70
2021/11/14 11:28:09;;;;;;;74.95;33.60;;;8.50;99.90;;;;;;4974183;28;20263;-70
2021/11/14 11:30:39;;;;;;;81.43;32.63;;;8.60;99.90;;;;;;4974635;28;20240;-70
2021/11/14 11:33:06;;;;;;;68.90;30.95;;;8.60;99.90;;;;;;4973779;28;20270;-70
2021/11/14 11:35:33;;;;;;;77.53;33.03;;;8.60;99.90;;;;;;4974529;28;20232;-69
2021/11/14 11:38:00;;;;;;;78.57;33.83;;;8.60;99.90;;;;;;4974032;28;20236;-69
2021/11/14 11:40:27;;;;;;;75.40;33.00;;;8.70;99.90;;;;;;4974344;28;20288;-69
2021/11/14 11:42:54;;;;;;;76.18;34.00;;;8.70;99.90;;;;;;4973732;28;20212;-69
2021/11/14 11:45:30;;;;;;;66.28;31.90;;;8.70;99.90;;;;;;4967660;28;20560;-70
2021/11/14 11:47:59;;;;;;;56.65;30.48;;;8.70;99.90;;;;;;4973458;28;20204;-71
2021/11/14 11:50:28;;;;;;;68.93;31.45;;;8.70;99.90;;;;;;4974096;28;20627;-71
2021/11/14 11:52:55;;;;;;;80.28;32.53;;;8.80;99.90;;;;;;4973687;28;20213;-70
2021/11/14 11:55:24;;;;;;;69.07;31.67;;;8.80;99.90;;;;;;4973999;28;20220;-71
2021/11/14 11:57:53;;;;;;;69.85;30.77;;;8.80;99.90;;;;;;4972457;28;20213;-69
2021/11/14 12:00:20;;;;;;;65.10;31.67;;;8.90;99.90;;;;;;4973931;28;20988;-69
2021/11/14 12:02:48;;;;;;;59.70;28.67;;;8.80;99.90;;;;;;4973755;28;20231;-69
2021/11/14 12:05:20;;;;;;;66.50;30.88;;;8.90;99.90;;;;;;4974943;28;20255;-70
2021/11/14 12:07:49;;;;;;;63.90;31.25;;;8.90;99.90;;;;;;4974110;28;20226;-70
2021/11/14 12:10:19;;;;;;;66.90;29.55;;;8.90;99.90;;;;;;4973536;28;20250;-70
2021/11/14 12:12:49;;;;;;;61.17;29.70;;;8.90;99.90;;;;;;4973463;28;20294;-70
2021/11/14 12:15:19;;;;;;;62.78;28.73;;;8.90;99.90;;;;;;4973607;28;20330;-70
2021/11/14 12:17:57;;;;;;;67.00;33.22;;;8.90;99.90;;;;;;4967279;28;20228;-70
2021/11/14 12:20:31;;;;;;;59.25;29.20;;;8.80;99.90;;;;;;4973285;28;20347;-68
2021/11/14 12:23:00;;;;;;;59.50;29.23;;;8.80;99.90;;;;;;4973214;28;20209;-69
2021/11/14 12:25:31;;;;;;;57.08;28.92;;;8.80;99.90;;;;;;4973621;28;20309;-71
2021/11/14 12:28:07;;;;;;;60.13;29.02;;;8.80;99.90;;;;;;4972914;28;20268;-70
2021/11/14 12:30:37;;;;;;;62.50;27.13;;;8.80;99.90;;;;;;4973401;28;20232;-70
2021/11/14 12:33:07;;;;;;;62.75;29.25;;;8.80;99.90;;;;;;4973404;28;20239;-69
2021/11/14 12:35:42;;;;;;;63.45;32.55;;;8.80;99.90;;;;;;4973328;28;20705;-69
2021/11/14 12:38:13;;;;;;;56.78;27.40;;;8.80;99.90;;;;;;4973422;28;20228;-70
2021/11/14 12:40:44;;;;;;;52.55;24.83;;;8.80;99.90;;;;;;4973228;28;20712;-70
2021/11/14 12:43:15;;;;;;;53.80;25.02;;;8.80;99.90;;;;;;4972930;28;20684;-69
2021/11/14 12:45:50;;;;;;;53.00;26.73;;;8.70;99.90;;;;;;4972871;28;20208;-69
2021/11/14 12:48:20;;;;;;;49.72;27.73;;;8.70;99.90;;;;;;4972297;28;20299;-69
2021/11/14 12:50:47;;;;;;;49.35;24.55;;;8.70;99.90;;;;;;4973063;28;20233;-70
2021/11/14 12:53:18;;;;;;;53.28;26.63;;;8.70;99.90;;;;;;4972901;28;20581;-70
2021/11/14 12:55:45;;;;;;;50.45;25.23;;;8.70;99.90;;;;;;4972656;28;20320;-70
2021/11/14 12:58:14;;;;;;;49.15;22.75;;;8.60;99.90;;;;;;4972518;28;20212;-71
2021/11/14 13:00:43;;;;;;;48.97;23.63;;;8.60;99.90;;;;;;4972834;28;20244;-70
2021/11/14 13:03:22;;;;;;;48.80;24.13;;;8.60;99.90;;;;;;4972480;28;20217;-71
2021/11/14 13:05:51;;;;;;;49.50;25.15;;;8.70;99.90;;;;;;4972643;28;20239;-71
2021/11/14 13:08:20;;;;;;;52.60;25.23;;;8.70;99.90;;;;;;4969577;28;20630;-70
2021/11/14 13:10:48;;;;;;;54.35;26.48;;;8.70;99.90;;;;;;4971638;28;20236;-70
2021/11/14 13:13:27;;;;;;;40.10;24.55;;;8.70;99.90;;;;;;4972844;28;20232;-70
2021/11/14 13:15:55;;;;;;;45.67;24.58;;;8.70;99.90;;;;;;4972772;28;20667;-71
2021/11/14 13:18:24;;;;;;;51.55;24.45;;;8.60;99.90;;;;;;4971807;28;20215;-71
2021/11/14 13:20:55;;;;;;;49.63;24.73;;;8.60;99.90;;;;;;4972293;28;20277;-70
2021/11/14 13:23:22;;;;;;;46.85;25.52;;;8.60;99.90;;;;;;4972047;28;20216;-70
2021/11/14 13:25:48;;;;;;;47.45;23.55;;;8.60;99.90;;;;;;4972021;28;20200;-71
2021/11/14 13:28:15;;;;;;;49.22;25.02;;;8.60;99.90;;;;;;4971775;28;20208;-70
2021/11/14 13:30:44;;;;;;;50.50;24.02;;;8.60;99.90;;;;;;4972083;28;20243;-70
2021/11/14 13:33:16;;;;;;;48.70;25.60;;;8.60;99.90;;;;;;4971908;28;20410;-71
2021/11/14 13:35:45;;;;;;;56.58;25.55;;;8.60;99.90;;;;;;4971867;28;20252;-71
2021/11/14 13:38:12;;;;;;;44.72;24.63;;;8.60;99.90;;;;;;4971711;28;20211;-70
2021/11/14 13:40:39;;;;;;;49.20;23.98;;;8.60;99.90;;;;;;4971941;28;20343;-72
2021/11/14 13:43:07;;;;;;;47.45;22.15;;;8.50;99.90;;;;;;4972013;28;20220;-70
2021/11/14 13:45:38;;;;;;;49.22;23.85;;;8.50;99.90;;;;;;4965912;28;20539;-70
2021/11/14 13:48:07;;;;;;;49.35;23.77;;;8.50;99.90;;;;;;4971514;28;20303;-71
2021/11/14 13:50:37;;;;;;;49.60;24.90;;;8.50;99.90;;;;;;4973046;28;20315;-70
2021/11/14 13:53:17;;;;;;;48.03;24.55;;;8.50;99.90;;;;;;4976818;28;20219;-69
2021/11/14 13:55:48;;;;;;;51.65;24.50;;;8.50;99.90;;;;;;4971432;28;20327;-69
2021/11/14 13:58:16;;;;;;;49.67;24.10;;;8.40;99.90;;;;;;4971631;28;20241;-69
2021/11/14 14:00:45;;;;;;;54.20;26.80;;;8.40;99.90;;;;;;4971703;28;20603;-70
2021/11/14 14:03:14;;;;;;;53.13;24.65;;;8.40;99.90;;;;;;4971600;28;20212;-69
2021/11/14 14:05:41;;;;;;;47.10;24.58;;;8.40;99.90;;;;;;4971725;28;20563;-70
2021/11/14 14:08:08;;;;;;;57.50;25.92;;;8.40;99.90;;;;;;4971789;28;20303;-69
2021/11/14 14:10:37;;;;;;;47.05;24.50;;;8.40;99.90;;;;;;4971951;28;20903;-70
2021/11/14 14:13:04;;;;;;;53.67;25.50;;;8.40;99.90;;;;;;4972273;28;20213;-71
2021/11/14 14:15:34;;;;;;;49.20;23.63;;;8.40;99.90;;;;;;4972146;28;20236;-69
2021/11/14 14:18:05;;;;;;;43.90;23.20;;;8.40;99.90;;;;;;4971437;28;20295;-70
2021/11/14 14:20:32;;;;;;;51.63;24.70;;;8.40;99.90;;;;;;4973171;28;20215;-70
2021/11/14 14:23:00;;;;;;;53.92;25.02;;;8.40;99.90;;;;;;4977153;28;20215;-70
2021/11/14 14:25:31;;;;;;;47.28;24.13;;;8.40;99.90;;;;;;4976585;28;20212;-70
2021/11/14 14:28:02;;;;;;;47.83;24.15;;;8.40;99.90;;;;;;4975655;28;20213;-70
2021/11/14 14:30:30;;;;;;;49.60;24.33;;;8.40;99.90;;;;;;4976528;28;20212;-69
2021/11/14 14:32:59;;;;;;;54.42;25.25;;;8.40;99.90;;;;;;4975250;28;20602;-69
2021/11/14 14:35:28;;;;;;;58.03;25.00;;;8.40;99.90;;;;;;4975744;28;20598;-70
2021/11/14 14:37:56;;;;;;;50.05;24.42;;;8.40;99.90;;;;;;4975361;28;20215;-71
2021/11/14 14:40:35;;;;;;;52.67;24.10;;;8.40;99.90;;;;;;4975588;28;20581;-70
2021/11/14 14:43:07;;;;;;;55.55;22.00;;;8.30;99.90;;;;;;4975615;28;20223;-71
2021/11/14 14:45:33;;;;;;;48.60;24.48;;;8.30;99.90;;;;;;4975952;28;20220;-70
2021/11/14 14:48:02;;;;;;;57.13;23.58;;;8.30;99.90;;;;;;4974583;28;20212;-70
2021/11/14 14:50:29;;;;;;;54.08;24.35;;;8.30;99.90;;;;;;4975654;28;20244;-69
2021/11/14 14:52:58;;;;;;;47.30;23.48;;;8.30;99.90;;;;;;4975027;28;20204;-72
2021/11/14 14:55:25;;;;;;;52.55;24.17;;;8.30;99.90;;;;;;4975347;28;20215;-70
2021/11/14 14:57:52;;;;;;;55.97;24.33;;;8.30;99.90;;;;;;4974711;28;20205;-70
2021/11/14 15:00:31;;;;;;;52.63;23.85;;;8.30;99.90;;;;;;4975079;28;20227;-70
2021/11/14 15:02:59;;;;;;;54.40;26.05;;;8.30;99.90;;;;;;4974777;28;20208;-70
2021/11/14 15:05:27;;;;;;;51.75;25.48;;;8.30;99.90;;;;;;4975336;28;20217;-70
2021/11/14 15:07:55;;;;;;;52.65;24.80;;;8.30;99.90;;;;;;4968713;28;20205;-70
2021/11/14 15:10:25;;;;;;;44.88;21.95;;;8.30;99.90;;;;;;4975144;28;20542;-71
2021/11/14 15:12:55;;;;;;;50.65;26.02;;;8.30;99.90;;;;;;4974423;28;20650;-71
2021/11/14 15:15:25;;;;;;;50.92;25.15;;;8.30;99.90;;;;;;4975155;28;20263;-71
2021/11/14 15:17:53;;;;;;;55.10;25.98;;;8.30;99.90;;;;;;4974092;28;20653;-70
2021/11/14 15:20:23;;;;;;;49.28;25.20;;;8.30;99.90;;;;;;4974749;28;20693;-70
2021/11/14 15:22:52;;;;;;;48.20;23.33;;;8.30;99.90;;;;;;4975102;28;20213;-71
2021/11/14 15:25:20;;;;;;;50.50;25.55;;;8.30;99.90;;;;;;4974743;28;20205;-70
2021/11/14 15:27:49;;;;;;;49.30;24.58;;;8.30;99.90;;;;;;4974031;28;20208;-70
2021/11/14 15:30:18;;;;;;;54.08;23.85;;;8.30;99.90;;;;;;4975103;28;20208;-69
2021/11/14 15:32:46;;;;;;;48.17;24.23;;;8.30;99.90;;;;;;4973236;28;20646;-73
2021/11/14 15:35:13;;;;;;;47.20;25.30;;;8.30;99.90;;;;;;4974374;28;20223;-69
2021/11/14 15:37:39;;;;;;;45.47;23.13;;;8.30;99.90;;;;;;4974174;28;20586;-73
2021/11/14 15:40:09;;;;;;;51.15;23.33;;;8.30;99.90;;;;;;4976580;28;20216;-72
2021/11/14 15:42:36;;;;;;;53.03;23.77;;;8.30;99.90;;;;;;4979186;28;20228;-72
2021/11/14 15:45:07;;;;;;;57.63;23.90;;;8.30;99.90;;;;;;4972643;28;20209;-71
2021/11/14 15:47:34;;;;;;;49.72;23.27;;;8.30;99.90;;;;;;4975008;28;20263;-71
2021/11/14 15:50:02;;;;;;;51.97;23.85;;;8.30;99.90;;;;;;4976381;28;20310;-71
2021/11/14 15:52:29;;;;;;;49.08;22.60;;;8.30;99.90;;;;;;4975660;28;20228;-71
2021/11/14 15:54:56;;;;;;;48.42;23.83;;;8.30;99.90;;;;;;4974744;28;20311;-71
2021/11/14 15:57:23;;;;;;;49.20;23.27;;;8.30;99.90;;;;;;4973256;28;20225;-71
2021/11/14 15:59:49;;;;;;;46.50;23.05;;;8.30;99.90;;;;;;4973839;28;20212;-70
2021/11/14 16:02:18;;;;;;;46.72;25.40;;;8.30;99.90;;;;;;4973099;28;20332;-70
2021/11/14 16:04:47;;;;;;;47.25;22.85;;;8.30;99.90;;;;;;4973922;28;20302;-69
2021/11/14 16:07:15;;;;;;;50.30;23.10;;;8.30;99.90;;;;;;4973721;28;20208;-70
2021/11/14 16:09:45;;;;;;;48.30;22.90;;;8.40;99.90;;;;;;4973206;28;20296;-70
2021/11/14 16:12:11;;;;;;;53.47;25.10;;;8.40;99.90;;;;;;4973427;28;20287;-70
2021/11/14 16:14:38;;;;;;;45.30;23.38;;;8.40;99.90;;;;;;4973777;28;20208;-70
2021/11/14 16:17:05;;;;;;;46.20;23.55;;;8.40;99.90;;;;;;4969004;28;20233;-70
2021/11/14 16:19:31;;;;;;;51.38;23.23;;;8.40;99.90;;;;;;4972126;28;20201;-70
2021/11/14 16:21:58;;;;;;;54.95;25.33;;;8.40;99.90;;;;;;4972670;28;20229;-70
2021/11/14 16:24:26;;;;;;;52.50;25.20;;;8.40;99.90;;;;;;4973524;28;20201;-70
2021/11/14 16:26:53;;;;;;;52.08;24.73;;;8.40;99.90;;;;;;4972931;28;20208;-70
2021/11/14 16:29:23;;;;;;;51.88;24.52;;;8.40;99.90;;;;;;4973487;28;20614;-70
2021/11/14 16:31:51;;;;;;;49.67;24.50;;;8.40;99.90;;;;;;4974758;28;20224;-72
2021/11/14 16:34:18;;;;;;;51.92;25.80;;;8.40;99.90;;;;;;4973126;28;20232;-71
2021/11/14 16:36:45;;;;;;;51.63;24.63;;;8.40;99.90;;;;;;4985529;28;20611;-70
2021/11/14 16:39:12;;;;;;;49.55;23.55;;;8.40;99.90;;;;;;4981999;28;20217;-70
2021/11/14 16:41:40;;;;;;;50.65;22.83;;;8.40;99.90;;;;;;4973005;28;20233;-70
2021/11/14 16:44:08;;;;;;;53.33;24.00;;;8.40;99.90;;;;;;4973957;28;20197;-71
2021/11/14 16:46:35;;;;;;;46.30;23.17;;;8.40;99.90;;;;;;4974210;28;20201;-70
2021/11/14 16:49:02;;;;;;;43.83;21.13;;;8.40;99.90;;;;;;4975728;28;20296;-70
2021/11/14 16:51:28;;;;;;;49.08;22.73;;;8.40;99.90;;;;;;4976566;28;20220;-69
2021/11/14 16:53:55;;;;;;;44.78;22.00;;;8.40;99.90;;;;;;4974193;28;20215;-71
2021/11/14 16:56:22;;;;;;;47.42;21.58;;;8.40;99.90;;;;;;4972872;28;20251;-70
2021/11/14 16:58:50;;;;;;;52.53;22.70;;;8.40;99.90;;;;;;4972915;28;20259;-70
2021/11/14 17:01:17;;;;;;;39.25;21.98;;;8.40;99.90;;;;;;4972645;28;20233;-68
2021/11/14 17:03:43;;;;;;;48.90;22.77;;;8.40;99.90;;;;;;4972237;28;20212;-70
2021/11/14 17:06:10;;;;;;;44.40;21.55;;;8.40;99.90;;;;;;4972090;28;20217;-70
2021/11/14 17:08:37;;;;;;;45.90;22.73;;;8.40;99.90;;;;;;4972389;28;20200;-69
2021/11/14 17:11:05;;;;;;;49.88;23.70;;;8.40;99.90;;;;;;4972268;28;20228;-70
2021/11/14 17:13:32;;;;;;;55.92;22.40;;;8.40;99.90;;;;;;4972408;28;20805;-69
2021/11/14 17:16:00;;;;;;;39.75;21.08;;;8.40;99.90;;;;;;4972514;28;20213;-69
2021/11/14 17:18:27;;;;;;;46.40;22.52;;;8.30;99.90;;;;;;4988846;28;20235;-69
2021/11/14 17:20:56;;;;;;;46.80;21.67;;;8.30;99.90;;;;;;4978565;28;20307;-71
2021/11/14 17:23:23;;;;;;;45.97;20.15;;;8.30;99.90;;;;;;4973070;28;20243;-70
2021/11/14 17:25:51;;;;;;;52.70;21.95;;;8.30;99.90;;;;;;4983413;28;20200;-70
2021/11/14 17:28:17;;;;;;;48.03;22.80;;;8.30;99.90;;;;;;4972797;28;20205;-71
2021/11/14 17:30:45;;;;;;;57.28;21.90;;;8.30;99.90;;;;;;4972460;28;20229;-71
2021/11/14 17:33:13;;;;;;;45.15;22.40;;;8.30;99.90;;;;;;4972104;28;20200;-71
2021/11/14 17:35:42;;;;;;;49.50;21.60;;;8.30;99.90;;;;;;4972842;28;20220;-71
2021/11/14 17:38:09;;;;;;;58.42;24.25;;;8.20;99.90;;;;;;4979340;28;20224;-70
2021/11/14 17:40:36;;;;;;;50.22;22.15;;;8.20;99.90;;;;;;4974177;28;20365;-71